createdAt,value
2019-05-16T00:00:41.565Z,11.71
2019-05-16T00:03:11.703Z,11.70
2019-05-16T00:05:50.453Z,11.68
2019-05-16T00:08:13.561Z,11.67
2019-05-16T00:10:43.463Z,11.61
2019-05-16T00:13:13.864Z,11.52
2019-05-16T00:15:44.909Z,11.53
2019-05-16T00:18:17.724Z,11.50
2019-05-16T00:20:49.249Z,11.55
2019-05-16T00:23:19.424Z,11.52
2019-05-16T00:25:49.328Z,11.44
2019-05-16T00:28:19.644Z,11.45
2019-05-16T00:30:49.513Z,11.43
2019-05-16T00:33:19.785Z,11.42
2019-05-16T00:36:02.236Z,11.43
2019-05-16T00:38:22.354Z,11.48
2019-05-16T00:40:52.740Z,11.44
2019-05-16T00:43:22.739Z,11.40
2019-05-16T00:45:52.749Z,11.40
2019-05-16T00:48:22.723Z,11.40
2019-05-16T00:50:53.077Z,11.36
2019-05-16T00:53:23.197Z,11.31
2019-05-16T00:55:54.457Z,11.35
2019-05-16T00:58:25.657Z,11.38
2019-05-16T01:00:55.638Z,10.77
2019-05-16T01:03:25.475Z,11.35
2019-05-16T01:05:58.311Z,11.37
2019-05-16T01:08:28.778Z,11.40
2019-05-16T01:10:59.253Z,11.36
2019-05-16T01:13:29.641Z,11.36
2019-05-16T01:16:00.410Z,11.38
2019-05-16T01:18:31.525Z,11.37
2019-05-16T01:21:02.320Z,11.39
2019-05-16T01:23:32.998Z,11.38
2019-05-16T01:26:04.298Z,11.36
2019-05-16T01:28:37.923Z,11.35
2019-05-16T01:31:08.681Z,11.32
2019-05-16T01:33:38.786Z,11.30
2019-05-16T01:36:09.233Z,11.26
2019-05-16T01:38:39.916Z,11.29
2019-05-16T01:41:09.984Z,11.25
2019-05-16T01:43:40.034Z,11.17
2019-05-16T01:46:10.095Z,11.17
2019-05-16T01:48:40.050Z,11.14
2019-05-16T01:51:10.092Z,11.09
2019-05-16T01:53:40.489Z,11.12
2019-05-16T01:56:11.749Z,11.10
2019-05-16T01:58:44.014Z,11.11
2019-05-16T02:01:16.578Z,11.09
2019-05-16T02:03:48.199Z,11.12
2019-05-16T02:06:18.657Z,11.02
2019-05-16T02:08:48.916Z,10.98
2019-05-16T02:11:18.831Z,11.01
2019-05-16T02:13:48.921Z,11.03
2019-05-16T02:16:19.049Z,11.01
2019-05-16T02:18:49.042Z,10.82
2019-05-16T02:21:19.321Z,10.81
2019-05-16T02:23:51.652Z,10.77
2019-05-16T02:26:22.265Z,10.65
2019-05-16T02:28:52.650Z,10.64
2019-05-16T02:31:23.068Z,10.67
2019-05-16T02:33:53.378Z,10.66
2019-05-16T02:36:23.266Z,10.71
2019-05-16T02:38:55.607Z,10.75
2019-05-16T02:41:25.015Z,10.67
2019-05-16T02:43:54.987Z,10.65
2019-05-16T02:46:25.156Z,10.67
2019-05-16T02:48:56.156Z,10.67
2019-05-16T02:51:26.974Z,10.66
2019-05-16T02:53:56.994Z,10.64
2019-05-16T02:56:27.340Z,10.66
2019-05-16T02:59:01.415Z,10.58
2019-05-16T03:01:31.715Z,10.59
2019-05-16T03:04:01.934Z,10.56
2019-05-16T03:06:32.803Z,10.62
2019-05-16T03:09:06.403Z,10.57
2019-05-16T03:11:37.143Z,10.65
2019-05-16T03:14:07.521Z,10.65
2019-05-16T03:16:41.800Z,10.70
2019-05-16T03:19:14.488Z,10.66
2019-05-16T03:21:45.186Z,10.68
2019-05-16T03:24:15.628Z,10.67
2019-05-16T03:26:45.795Z,10.67
2019-05-16T03:29:16.408Z,10.57
2019-05-16T03:31:46.619Z,10.58
2019-05-16T03:34:24.171Z,10.62
2019-05-16T03:36:54.493Z,10.66
2019-05-16T03:39:21.416Z,10.68
2019-05-16T03:41:54.558Z,10.68
2019-05-16T03:44:24.636Z,10.71
2019-05-16T03:46:54.812Z,10.68
2019-05-16T03:49:25.786Z,10.52
2019-05-16T03:51:55.796Z,10.51
2019-05-16T03:54:25.884Z,10.51
2019-05-16T03:56:55.890Z,10.44
2019-05-16T03:59:25.764Z,10.44
2019-05-16T04:01:55.747Z,10.52
2019-05-16T04:04:25.721Z,10.51
2019-05-16T04:06:55.734Z,10.59
2019-05-16T04:09:25.784Z,10.56
2019-05-16T04:11:56.195Z,10.55
2019-05-16T04:14:30.906Z,10.54
2019-05-16T04:17:01.841Z,10.67
2019-05-16T04:19:33.429Z,10.55
2019-05-16T04:22:04.602Z,10.57
2019-05-16T04:24:34.857Z,10.65
2019-05-16T04:27:04.772Z,10.68
2019-05-16T04:29:35.125Z,10.74
2019-05-16T04:32:11.042Z,10.32
2019-05-16T04:34:44.516Z,10.95
2019-05-16T04:37:14.594Z,11.03
2019-05-16T04:39:44.730Z,10.98
2019-05-16T04:42:14.958Z,11.02
2019-05-16T04:44:45.193Z,11.12
2019-05-16T04:47:16.353Z,11.05
2019-05-16T04:49:46.359Z,11.09
2019-05-16T04:52:16.278Z,11.14
2019-05-16T04:54:46.370Z,11.14
2019-05-16T04:57:16.416Z,11.07
2019-05-16T04:59:46.707Z,11.13
2019-05-16T05:02:16.703Z,11.15
2019-05-16T05:04:46.880Z,11.23
2019-05-16T05:07:20.370Z,11.30
2019-05-16T05:09:51.331Z,11.35
2019-05-16T05:12:22.213Z,11.42
2019-05-16T05:14:52.248Z,11.42
2019-05-16T05:17:23.396Z,11.42
2019-05-16T05:19:53.503Z,11.47
2019-05-16T05:22:25.162Z,11.56
2019-05-16T05:25:00.006Z,11.66
2019-05-16T05:27:33.886Z,11.77
2019-05-16T05:30:10.505Z,11.88
2019-05-16T05:32:41.600Z,11.41
2019-05-16T05:35:13.316Z,12.00
2019-05-16T05:37:52.641Z,12.07
2019-05-16T05:40:26.781Z,12.21
2019-05-16T05:42:59.857Z,12.28
2019-05-16T05:45:33.581Z,12.30
2019-05-16T05:48:04.096Z,12.26
2019-05-16T05:50:35.656Z,12.16
2019-05-16T05:53:06.276Z,12.02
2019-05-16T05:55:37.140Z,11.91
2019-05-16T05:58:10.083Z,11.65
2019-05-16T06:00:40.675Z,11.37
2019-05-16T06:03:10.831Z,11.48
2019-05-16T06:05:41.343Z,11.37
2019-05-16T06:08:11.589Z,11.49
2019-05-16T06:10:41.593Z,11.50
2019-05-16T06:13:12.372Z,11.50
2019-05-16T06:15:42.556Z,11.58
2019-05-16T06:18:12.940Z,11.64
2019-05-16T06:20:43.038Z,11.51
2019-05-16T06:23:13.086Z,11.46
2019-05-16T06:25:43.054Z,11.46
2019-05-16T06:28:13.075Z,11.41
2019-05-16T06:30:43.308Z,11.52
2019-05-16T06:33:13.583Z,11.17
2019-05-16T06:35:45.391Z,11.66
2019-05-16T06:38:15.392Z,11.58
2019-05-16T06:40:45.556Z,11.76
2019-05-16T06:43:15.566Z,11.87
2019-05-16T06:45:45.663Z,11.71
2019-05-16T06:48:15.928Z,11.85
2019-05-16T06:50:45.952Z,12.06
2019-05-16T06:53:23.215Z,12.31
2019-05-16T06:55:54.732Z,12.51
2019-05-16T06:58:24.708Z,12.56
2019-05-16T07:00:54.884Z,12.64
2019-05-16T07:03:25.062Z,12.82
2019-05-16T07:06:00.583Z,13.06
2019-05-16T07:08:31.154Z,13.07
2019-05-16T07:11:01.526Z,13.14
2019-05-16T07:13:32.348Z,13.26
2019-05-16T07:16:03.039Z,13.34
2019-05-16T07:18:32.889Z,13.39
2019-05-16T07:21:03.245Z,13.17
2019-05-16T07:23:33.215Z,13.09
2019-05-16T07:26:03.815Z,12.87
2019-05-16T07:28:45.317Z,12.96
2019-05-16T07:31:18.752Z,12.91
2019-05-16T07:33:50.043Z,12.86
2019-05-16T07:36:20.916Z,12.90
2019-05-16T07:38:51.053Z,12.69
2019-05-16T07:41:21.264Z,12.54
2019-05-16T07:43:51.589Z,12.20
2019-05-16T07:46:21.769Z,12.05
2019-05-16T07:48:52.250Z,11.46
2019-05-16T07:51:23.686Z,11.94
2019-05-16T07:53:53.817Z,11.80
2019-05-16T07:56:23.869Z,11.84
2019-05-16T07:58:54.117Z,11.74
2019-05-16T08:01:24.513Z,11.52
2019-05-16T08:03:54.657Z,11.23
2019-05-16T08:06:24.698Z,11.31
2019-05-16T08:08:54.932Z,11.37
2019-05-16T08:11:25.379Z,11.33
2019-05-16T08:13:55.256Z,11.27
2019-05-16T08:16:25.817Z,11.25
2019-05-16T08:18:55.960Z,11.30
2019-05-16T08:21:30.216Z,11.43
2019-05-16T08:24:07.187Z,11.46
2019-05-16T08:26:38.823Z,11.50
2019-05-16T08:29:07.893Z,11.53
2019-05-16T08:31:38.030Z,11.74
2019-05-16T08:34:12.250Z,11.85
2019-05-16T08:36:42.236Z,11.41
2019-05-16T08:39:14.089Z,11.86
2019-05-16T08:41:44.779Z,11.91
2019-05-16T08:44:16.609Z,11.67
2019-05-16T08:49:24.820Z,11.60
2019-05-16T08:52:01.522Z,10.88
2019-05-16T08:54:32.877Z,11.97
2019-05-16T08:57:22.964Z,12.11
2019-05-16T08:59:36.079Z,12.16
2019-05-16T09:02:12.020Z,12.25
2019-05-16T09:04:44.161Z,12.23
2019-05-16T09:07:12.720Z,11.02
2019-05-16T09:09:51.148Z,11.83
2019-05-16T09:10:31.813Z,11.44
2019-05-16T09:12:18.056Z,11.79
2019-05-16T09:14:48.895Z,11.46
2019-05-16T09:17:19.119Z,11.54
2019-05-16T09:19:49.400Z,11.61
2019-05-16T09:22:19.680Z,11.52
2019-05-16T09:24:50.882Z,11.69
2019-05-16T09:27:21.187Z,11.66
2019-05-16T09:32:21.649Z,11.72
2019-05-16T09:34:52.033Z,11.80
2019-05-16T09:37:22.440Z,11.88
2019-05-16T09:39:52.647Z,11.85
2019-05-16T09:42:23.194Z,11.78
2019-05-16T09:44:53.906Z,10.98
2019-05-16T09:47:28.196Z,11.66
2019-05-16T09:50:00.949Z,11.65
2019-05-16T09:52:32.511Z,11.56
2019-05-16T09:55:04.162Z,11.56
2019-05-16T09:57:37.328Z,11.48
2019-05-16T10:00:10.044Z,11.43
2019-05-16T10:02:41.133Z,11.12
2019-05-16T10:05:13.528Z,11.00
2019-05-16T10:07:47.053Z,10.69
2019-05-16T10:10:17.296Z,10.69
2019-05-16T10:12:47.950Z,10.76
2019-05-16T10:15:19.534Z,10.77
2019-05-16T10:17:49.682Z,10.81
2019-05-16T10:20:19.764Z,10.95
2019-05-16T10:22:50.571Z,11.13
2019-05-16T10:25:21.495Z,11.34
2019-05-16T10:27:52.247Z,11.08
2019-05-16T10:30:26.931Z,11.38
2019-05-16T10:33:00.921Z,11.22
2019-05-16T10:35:30.298Z,11.24
2019-05-16T10:38:00.820Z,11.21
2019-05-16T10:40:32.473Z,11.26
2019-05-16T10:43:06.893Z,11.40
2019-05-16T10:45:37.752Z,11.44
2019-05-16T10:48:08.282Z,11.43
2019-05-16T10:50:38.824Z,11.48
2019-05-16T10:53:32.623Z,11.61
2019-05-16T10:55:41.235Z,11.64
2019-05-16T10:58:11.570Z,11.67
2019-05-16T11:01:09.941Z,11.74
2019-05-16T11:03:16.967Z,11.85
2019-05-16T11:06:02.958Z,11.97
2019-05-16T11:08:22.132Z,12.12
2019-05-16T11:10:53.867Z,12.18
2019-05-16T11:13:24.139Z,12.13
2019-05-16T11:15:55.150Z,12.12
2019-05-16T11:18:27.289Z,12.27
2019-05-16T11:20:58.512Z,12.39
2019-05-16T11:23:31.489Z,12.34
2019-05-16T11:26:01.072Z,12.28
2019-05-16T11:28:31.870Z,12.38
2019-05-16T11:31:03.929Z,12.58
2019-05-16T11:33:36.837Z,12.75
2019-05-16T11:36:08.181Z,12.88
2019-05-16T11:38:39.642Z,12.97
2019-05-16T11:41:10.849Z,13.07
2019-05-16T11:43:44.208Z,13.08
2019-05-16T11:46:14.432Z,13.02
2019-05-16T11:48:44.893Z,13.01
2019-05-16T11:51:17.442Z,12.78
2019-05-16T11:53:47.673Z,12.91
2019-05-16T11:56:18.157Z,12.39
2019-05-16T11:58:53.430Z,12.93
2019-05-16T12:01:27.470Z,12.86
2019-05-16T12:04:03.507Z,12.84
2019-05-16T12:06:33.684Z,12.82
2019-05-16T12:09:06.794Z,12.85
2019-05-16T12:11:38.464Z,12.80
2019-05-16T12:14:13.847Z,12.76
2019-05-16T12:16:47.234Z,12.78
2019-05-16T12:19:18.127Z,12.80
2019-05-16T12:21:49.244Z,12.81
2019-05-16T12:24:32.323Z,12.78
2019-05-16T12:26:56.875Z,12.73
2019-05-16T12:29:28.794Z,12.66
2019-05-16T12:32:07.182Z,12.57
2019-05-16T12:34:46.334Z,12.56
2019-05-16T12:37:28.909Z,12.33
2019-05-16T12:40:02.063Z,12.25
2019-05-16T12:42:33.169Z,12.35
2019-05-16T12:45:08.428Z,11.85
2019-05-16T12:47:47.336Z,12.55
2019-05-16T12:50:18.167Z,12.63
2019-05-16T12:52:50.023Z,12.67
2019-05-16T12:55:20.252Z,12.62
2019-05-16T12:57:58.718Z,12.56
2019-05-16T13:00:23.079Z,12.50
2019-05-16T13:02:53.901Z,12.51
2019-05-16T13:05:26.924Z,12.51
2019-05-16T13:07:56.630Z,12.38
2019-05-16T13:10:27.163Z,12.16
2019-05-16T13:12:58.226Z,12.14
2019-05-16T13:15:28.661Z,12.21
2019-05-16T13:17:58.813Z,12.28
2019-05-16T13:20:46.875Z,12.33
2019-05-16T13:23:26.763Z,12.40
2019-05-16T13:25:57.555Z,12.52
2019-05-16T13:28:31.534Z,12.66
2019-05-16T13:31:01.874Z,12.73
2019-05-16T13:33:36.680Z,12.88
2019-05-16T13:36:07.505Z,12.92
2019-05-16T13:38:38.748Z,12.92
2019-05-16T13:41:08.853Z,12.90
2019-05-16T13:43:38.930Z,12.86
2019-05-16T13:46:09.297Z,12.84
2019-05-16T13:48:39.344Z,12.81
2019-05-16T13:51:15.279Z,12.87
2019-05-16T13:56:13.356Z,12.94
2019-05-16T13:58:42.479Z,13.02
2019-05-16T14:01:12.645Z,13.13
2019-05-16T14:03:42.861Z,13.10
2019-05-16T14:06:12.475Z,13.01
2019-05-16T14:08:43.068Z,12.95
2019-05-16T14:11:13.278Z,12.88
2019-05-16T14:13:43.701Z,12.71
2019-05-16T14:16:14.747Z,12.65
2019-05-16T14:18:48.104Z,12.57
2019-05-16T14:21:18.979Z,12.53
2019-05-16T14:23:53.918Z,12.57
2019-05-16T14:26:24.491Z,12.56
2019-05-16T14:28:57.347Z,12.52
2019-05-16T14:31:26.921Z,12.49
2019-05-16T14:33:57.244Z,12.52
2019-05-16T14:36:28.169Z,12.53
2019-05-16T14:38:58.429Z,12.50
2019-05-16T14:41:29.053Z,12.49
2019-05-16T14:43:59.805Z,12.47
2019-05-16T14:46:30.294Z,12.39
2019-05-16T14:49:07.822Z,12.34
2019-05-16T14:51:39.126Z,12.32
2019-05-16T14:54:11.464Z,12.36
2019-05-16T14:56:47.363Z,12.35
2019-05-16T14:59:17.664Z,12.40
2019-05-16T15:01:52.527Z,12.42
2019-05-16T15:04:30.071Z,12.45
2019-05-16T15:07:00.658Z,12.49
2019-05-16T15:09:31.414Z,12.47
2019-05-16T15:12:06.703Z,12.36
2019-05-16T15:14:37.497Z,12.33
2019-05-16T15:17:07.831Z,12.27
2019-05-16T15:19:39.824Z,12.20
2019-05-16T15:22:10.478Z,12.17
2019-05-16T15:24:40.949Z,12.13
2019-05-16T15:27:12.207Z,12.12
2019-05-16T15:29:42.829Z,12.02
2019-05-16T15:32:17.706Z,11.37
2019-05-16T15:34:48.949Z,11.92
2019-05-16T15:37:21.214Z,11.91
2019-05-16T15:39:54.178Z,11.79
2019-05-16T15:42:24.312Z,11.68
2019-05-16T15:44:55.225Z,11.69
2019-05-16T15:47:28.476Z,11.74
2019-05-16T15:49:59.982Z,11.71
2019-05-16T15:53:03.068Z,11.69
2019-05-16T15:55:36.494Z,11.72
2019-05-16T15:58:10.327Z,11.62
2019-05-16T16:00:47.449Z,11.59
2019-05-16T16:03:17.609Z,11.56
2019-05-16T16:05:48.052Z,11.52
2019-05-16T16:08:18.799Z,11.56
2019-05-16T16:10:49.293Z,11.59
2019-05-16T16:13:20.131Z,11.55
2019-05-16T16:15:54.483Z,11.58
2019-05-16T16:18:23.151Z,11.54
2019-05-16T16:20:53.258Z,11.56
2019-05-16T16:23:23.664Z,11.59
2019-05-16T16:26:00.200Z,11.56
2019-05-16T16:28:31.307Z,11.59
2019-05-16T16:31:01.798Z,11.61
2019-05-16T16:33:37.437Z,11.63
2019-05-16T16:36:08.378Z,11.66
2019-05-16T16:38:39.865Z,11.75
2019-05-16T16:41:10.961Z,11.76
2019-05-16T16:43:42.161Z,11.77
2019-05-16T16:46:13.838Z,11.77
2019-05-16T16:48:44.690Z,11.80
2019-05-16T16:51:18.135Z,11.83
2019-05-16T16:53:53.183Z,11.91
2019-05-16T16:56:28.801Z,11.96
2019-05-16T16:59:01.881Z,12.04
2019-05-16T17:01:37.512Z,12.01
2019-05-16T17:04:08.451Z,12.05
2019-05-16T17:06:38.853Z,12.06
2019-05-16T17:09:11.203Z,12.08
2019-05-16T17:11:43.658Z,12.07
2019-05-16T17:14:17.527Z,12.10
2019-05-16T17:16:57.548Z,12.10
2019-05-16T17:19:31.248Z,12.08
2019-05-16T17:22:16.264Z,12.12
2019-05-16T17:24:39.782Z,12.08
2019-05-16T17:27:11.426Z,12.05
2019-05-16T17:29:43.296Z,12.04
2019-05-16T17:32:18.578Z,12.02
2019-05-16T17:34:49.752Z,12.01
2019-05-16T17:37:27.277Z,12.04
2019-05-16T17:39:57.319Z,12.01
2019-05-16T17:42:35.222Z,11.96
2019-05-16T17:45:09.080Z,11.86
2019-05-16T17:47:40.013Z,11.82
2019-05-16T17:50:11.424Z,11.82
2019-05-16T17:52:42.236Z,11.79
2019-05-16T17:55:17.172Z,11.78
2019-05-16T17:57:47.715Z,11.80
2019-05-16T18:00:25.613Z,11.82
2019-05-16T18:02:56.913Z,11.80
2019-05-16T18:05:27.701Z,11.75
2019-05-16T18:08:00.278Z,11.72
2019-05-16T18:10:31.156Z,11.72
2019-05-16T18:13:07.434Z,11.76
2019-05-16T18:15:37.440Z,11.78
2019-05-16T18:18:08.421Z,11.79
2019-05-16T18:20:38.742Z,11.80
2019-05-16T18:23:10.320Z,11.82
2019-05-16T18:25:42.686Z,11.81
2019-05-16T18:28:17.784Z,11.80
2019-05-16T18:30:51.953Z,11.77
2019-05-16T18:33:27.543Z,11.78
2019-05-16T18:36:00.101Z,11.72
2019-05-16T18:38:31.138Z,11.69
2019-05-16T18:41:01.350Z,11.63
2019-05-16T18:43:32.982Z,11.59
2019-05-16T18:46:07.158Z,11.56
2019-05-16T18:48:37.063Z,11.53
2019-05-16T18:51:07.235Z,11.46
2019-05-16T18:53:37.633Z,11.48
2019-05-16T18:56:08.054Z,11.45
2019-05-16T18:58:38.259Z,11.46
2019-05-16T19:01:08.514Z,11.44
2019-05-16T19:03:38.851Z,11.48
2019-05-16T19:06:09.310Z,11.44
2019-05-16T19:08:39.891Z,11.45
2019-05-16T19:11:10.167Z,11.37
2019-05-16T19:13:40.583Z,11.36
2019-05-16T19:16:11.320Z,11.33
2019-05-16T19:18:41.654Z,11.34
2019-05-16T19:21:12.546Z,11.31
2019-05-16T19:23:43.048Z,11.33
2019-05-16T19:26:13.449Z,11.36
2019-05-16T19:28:46.583Z,11.33
2019-05-16T19:31:17.292Z,11.34
2019-05-16T19:33:48.835Z,11.29
2019-05-16T19:36:19.602Z,11.31
2019-05-16T19:38:50.049Z,11.26
2019-05-16T19:41:20.112Z,11.33
2019-05-16T19:43:50.112Z,11.33
2019-05-16T19:46:23.515Z,11.30
2019-05-16T19:48:53.138Z,11.34
2019-05-16T19:51:26.784Z,11.32
2019-05-16T19:53:56.721Z,11.32
2019-05-16T19:56:27.072Z,10.72
2019-05-16T19:58:57.287Z,11.27
2019-05-16T20:01:27.809Z,11.31
2019-05-16T20:03:58.141Z,11.32
2019-05-16T20:06:28.130Z,11.33
2019-05-16T20:08:58.495Z,11.32
2019-05-16T20:11:29.233Z,11.31
2019-05-16T20:13:59.615Z,11.33
2019-05-16T20:16:33.870Z,11.37
2019-05-16T20:19:05.256Z,11.39
2019-05-16T20:21:36.920Z,11.41
2019-05-16T20:24:07.567Z,11.40
2019-05-16T20:26:38.054Z,11.40
2019-05-16T20:29:08.334Z,11.40
2019-05-16T20:31:38.250Z,11.37
2019-05-16T20:34:09.465Z,11.40
2019-05-16T20:36:39.427Z,11.38
2019-05-16T20:39:09.716Z,11.37
2019-05-16T20:41:39.959Z,11.36
2019-05-16T20:44:11.086Z,11.37
2019-05-16T20:46:42.875Z,11.40
2019-05-16T20:49:13.235Z,11.40
2019-05-16T20:51:43.251Z,11.39
2019-05-16T20:54:13.249Z,11.36
2019-05-16T20:56:43.296Z,11.35
2019-05-16T20:59:14.537Z,11.33
2019-05-16T21:01:46.494Z,11.27
2019-05-16T21:04:17.271Z,11.24
2019-05-16T21:06:57.483Z,11.25
2019-05-16T21:09:20.273Z,11.23
2019-05-16T21:11:50.371Z,11.25
2019-05-16T21:14:20.312Z,11.26
2019-05-16T21:16:50.570Z,11.25
2019-05-16T21:19:20.844Z,10.68
2019-05-16T21:21:51.149Z,11.27
2019-05-16T21:24:22.331Z,11.22
2019-05-16T21:26:54.831Z,11.21
2019-05-16T21:29:27.516Z,11.23
2019-05-16T21:31:57.361Z,11.24
2019-05-16T21:34:27.386Z,11.26
2019-05-16T21:37:11.003Z,11.32
2019-05-16T21:39:29.506Z,11.36
2019-05-16T21:41:59.527Z,11.35
2019-05-16T21:44:29.482Z,11.34
2019-05-16T21:47:00.109Z,11.33
2019-05-16T21:49:30.109Z,11.31
2019-05-16T21:52:00.169Z,11.31
2019-05-16T21:54:30.137Z,11.32
2019-05-16T21:56:59.981Z,11.28
2019-05-16T21:59:30.112Z,11.27
2019-05-16T22:02:00.067Z,11.25
2019-05-16T22:04:29.935Z,11.17
2019-05-16T22:06:59.929Z,11.11
2019-05-16T22:09:30.194Z,11.02
2019-05-16T22:12:00.542Z,10.95
2019-05-16T22:14:36.862Z,10.91
2019-05-16T22:17:07.730Z,10.90
2019-05-16T22:19:37.823Z,10.94
2019-05-16T22:22:07.682Z,10.95
2019-05-16T22:24:37.645Z,10.97
2019-05-16T22:27:07.669Z,11.00
2019-05-16T22:29:37.741Z,11.00
2019-05-16T22:32:09.290Z,11.00
2019-05-16T22:34:39.481Z,10.99
2019-05-16T22:37:09.589Z,10.98
2019-05-16T22:39:39.523Z,10.99
2019-05-16T22:42:09.546Z,11.00
2019-05-16T22:44:39.507Z,11.03
2019-05-16T22:47:09.432Z,11.03
2019-05-16T22:49:39.309Z,11.01
2019-05-16T22:52:09.324Z,11.03
2019-05-16T22:54:39.490Z,11.02
2019-05-16T22:57:09.384Z,11.01
2019-05-16T22:59:39.395Z,11.01
2019-05-16T23:02:11.880Z,11.01
2019-05-16T23:04:41.812Z,11.01
2019-05-16T23:07:11.702Z,10.99
2019-05-16T23:09:42.204Z,10.99
2019-05-16T23:12:12.094Z,11.00
2019-05-16T23:14:42.135Z,11.02
2019-05-16T23:17:12.023Z,11.02
2019-05-16T23:19:42.004Z,11.03
2019-05-16T23:22:12.051Z,11.07
2019-05-16T23:24:42.174Z,11.03
2019-05-16T23:27:12.861Z,11.01
2019-05-16T23:29:42.912Z,11.03
2019-05-16T23:32:12.818Z,10.98
2019-05-16T23:34:42.956Z,10.98
2019-05-16T23:37:12.816Z,10.97
2019-05-16T23:39:42.860Z,10.92
2019-05-16T23:42:13.138Z,10.88
2019-05-16T23:44:43.484Z,10.88
2019-05-16T23:47:13.390Z,10.91
2019-05-16T23:49:43.323Z,10.91
2019-05-16T23:52:13.378Z,10.90
2019-05-16T23:54:43.790Z,10.88
2019-05-16T23:57:13.729Z,10.91
2019-05-16T23:59:43.893Z,10.87
